This is the latest recevied weather packets stored in our database for station/object N7MLR. If no packets are shown the sender has not sent any weather packets the latest 10 day(s).
| Time | Temp. | Humidity | Pressure | Rain* | Wind** | Luminosity | Snow |
|---|---|---|---|---|---|---|---|
| 1778035903 | 25° C | 86% | 1007.2 hPa | 0 mm | - | 0 W/m² | - |
| 1778035600 | 25.56° C | 85% | 1007 hPa | 0 mm | - | 0 W/m² | - |
| 1778035296 | 25.56° C | 84% | 1007.1 hPa | 0 mm | - | 0 W/m² | - |
| 1778034993 | 25.56° C | 85% | 1007 hPa | 0 mm | - | 0 W/m² | - |
| 1778034690 | 25° C | 85% | 1007.2 hPa | 0 mm | - | 0 W/m² | - |
| 1778034387 | 23.89° C | 89% | 1007 hPa | 0 mm | - | 0 W/m² | - |
| 1778034085 | 23.89° C | 90% | 1006.9 hPa | 0 mm | - | 0 W/m² | - |
| 1778033782 | 23.89° C | 90% | 1006.9 hPa | 0 mm | - | 0 W/m² | - |
| 1778033480 | 23.89° C | 89% | 1006.8 hPa | 0 mm | - | 0 W/m² | - |
| 1778033176 | 23.89° C | 89% | 1006.6 hPa | 0 mm | - | 0 W/m² | - |
| 1778032874 | 23.89° C | 88% | 1006.5 hPa | 0 mm | - | 0 W/m² | - |
| 1778032571 | 24.44° C | 88% | 1006.3 hPa | 0 mm | - | 0 W/m² | - |
| 1778032268 | 24.44° C | 87% | 1006.5 hPa | 0 mm | - | 0 W/m² | - |
| 1778031966 | 25° C | 86% | 1006.2 hPa | 0 mm | - | 0 W/m² | - |
| 1778031661 | 25° C | 86% | 1006.3 hPa | 0 mm | - | 0 W/m² | - |
| 1778031360 | 25° C | 85% | 1006.1 hPa | 0 mm | - | 0 W/m² | - |
| 1778031056 | 25.56° C | 84% | 1005.9 hPa | 0 mm | - | 0 W/m² | - |
| 1778030752 | 25.56° C | 83% | 1006 hPa | 0 mm | - | 0 W/m² | - |
| 1778030449 | 26.11° C | 82% | 1006.1 hPa | 0 mm | - | 0 W/m² | - |
| 1778030147 | 26.67° C | 81% | 1006 hPa | 0 mm | - | 0 W/m² | - |
| 1778029842 | 26.67° C | 80% | 1006 hPa | 0 mm | - | 1 W/m² | - |
| 1778029537 | 27.22° C | 78% | 1006.1 hPa | 0 mm | - | 3 W/m² | - |
| 1778029233 | 27.22° C | 77% | 1006.1 hPa | 0 mm | - | 6 W/m² | - |
| 1778028930 | 27.78° C | 76% | 1006.1 hPa | 0 mm | - | 11 W/m² | - |
| 1778028626 | 26.67° C | 78% | 1006.1 hPa | 0 mm | - | 16 W/m² | - |
* Rain latest hour (hover to see other rain measurements)
** Current wind speed in m/s (hover to see current wind gust speed)